sensor_id;sensor_type;location;lat;lon;timestamp;pressure;altitude;pressure_sealevel;temperature;humidity
12209;BME280;6167;43.080;25.634;2022-10-19T00:00:23;100285.72;;;5.59;100.00
12209;BME280;6167;43.080;25.634;2022-10-19T00:02:50;100275.81;;;5.79;100.00
12209;BME280;6167;43.080;25.634;2022-10-19T00:05:17;100274.28;;;5.62;100.00
12209;BME280;6167;43.080;25.634;2022-10-19T00:07:44;100268.72;;;5.84;100.00
12209;BME280;6167;43.080;25.634;2022-10-19T00:10:12;100266.09;;;5.84;100.00
12209;BME280;6167;43.080;25.634;2022-10-19T00:12:39;100245.63;;;5.48;100.00
12209;BME280;6167;43.080;25.634;2022-10-19T00:15:07;100264.56;;;5.70;100.00
12209;BME280;6167;43.080;25.634;2022-10-19T00:17:34;100255.72;;;5.77;100.00
12209;BME280;6167;43.080;25.634;2022-10-19T00:20:01;100254.16;;;5.64;100.00
12209;BME280;6167;43.080;25.634;2022-10-19T00:22:28;100253.19;;;5.71;100.00
12209;BME280;6167;43.080;25.634;2022-10-19T00:24:55;100261.75;;;5.82;100.00
12209;BME280;6167;43.080;25.634;2022-10-19T00:27:24;100250.00;;;5.49;100.00
12209;BME280;6167;43.080;25.634;2022-10-19T00:29:50;100252.66;;;5.44;100.00
12209;BME280;6167;43.080;25.634;2022-10-19T00:32:17;100248.09;;;5.60;100.00
12209;BME280;6167;43.080;25.634;2022-10-19T00:34:44;100236.16;;;5.39;100.00
12209;BME280;6167;43.080;25.634;2022-10-19T00:37:11;100245.28;;;5.06;100.00
12209;BME280;6167;43.080;25.634;2022-10-19T00:39:38;100239.78;;;5.28;100.00
12209;BME280;6167;43.080;25.634;2022-10-19T00:42:05;100233.63;;;5.32;100.00
12209;BME280;6167;43.080;25.634;2022-10-19T00:44:59;100229.28;;;5.28;100.00
12209;BME280;6167;43.080;25.634;2022-10-19T00:47:27;100225.19;;;5.08;100.00
12209;BME280;6167;43.080;25.634;2022-10-19T00:49:55;100229.53;;;5.09;100.00
12209;BME280;6167;43.080;25.634;2022-10-19T00:52:25;100211.19;;;5.08;100.00
12209;BME280;6167;43.080;25.634;2022-10-19T00:54:53;100222.81;;;4.87;100.00
12209;BME280;6167;43.080;25.634;2022-10-19T00:57:22;100219.13;;;5.02;100.00
12209;BME280;6167;43.080;25.634;2022-10-19T00:59:50;100220.75;;;5.13;100.00
12209;BME280;6167;43.080;25.634;2022-10-19T01:02:19;100211.38;;;4.96;100.00
12209;BME280;6167;43.080;25.634;2022-10-19T01:04:48;100218.97;;;5.17;100.00
12209;BME280;6167;43.080;25.634;2022-10-19T01:07:16;100210.09;;;5.24;100.00
12209;BME280;6167;43.080;25.634;2022-10-19T01:09:44;100205.16;;;5.01;100.00
12209;BME280;6167;43.080;25.634;2022-10-19T01:12:20;100207.09;;;4.86;100.00
12209;BME280;6167;43.080;25.634;2022-10-19T01:15:05;100198.97;;;5.08;100.00
12209;BME280;6167;43.080;25.634;2022-10-19T01:17:46;100192.84;;;5.09;100.00
12209;BME280;6167;43.080;25.634;2022-10-19T01:20:32;100194.66;;;5.01;100.00
12209;BME280;6167;43.080;25.634;2022-10-19T01:23:23;100193.00;;;4.96;100.00
12209;BME280;6167;43.080;25.634;2022-10-19T01:26:02;100190.25;;;5.06;100.00
12209;BME280;6167;43.080;25.634;2022-10-19T01:28:44;100187.88;;;4.85;100.00
12209;BME280;6167;43.080;25.634;2022-10-19T01:31:21;100182.56;;;4.93;100.00
12209;BME280;6167;43.080;25.634;2022-10-19T01:33:56;100191.97;;;5.09;100.00
12209;BME280;6167;43.080;25.634;2022-10-19T01:36:31;100179.91;;;4.96;100.00
12209;BME280;6167;43.080;25.634;2022-10-19T01:39:07;100178.50;;;4.67;100.00
12209;BME280;6167;43.080;25.634;2022-10-19T01:41:42;100174.09;;;4.71;100.00
12209;BME280;6167;43.080;25.634;2022-10-19T01:44:15;100181.09;;;4.70;100.00
12209;BME280;6167;43.080;25.634;2022-10-19T01:46:48;100182.00;;;4.65;100.00
12209;BME280;6167;43.080;25.634;2022-10-19T01:49:20;100181.81;;;4.80;100.00
12209;BME280;6167;43.080;25.634;2022-10-19T01:51:52;100175.06;;;4.61;100.00
12209;BME280;6167;43.080;25.634;2022-10-19T01:54:22;100176.75;;;4.66;100.00
12209;BME280;6167;43.080;25.634;2022-10-19T01:56:51;100175.88;;;4.66;100.00
12209;BME280;6167;43.080;25.634;2022-10-19T01:59:20;100167.03;;;4.77;100.00
12209;BME280;6167;43.080;25.634;2022-10-19T02:01:50;100156.69;;;4.65;100.00
12209;BME280;6167;43.080;25.634;2022-10-19T02:04:20;100154.25;;;4.48;100.00
12209;BME280;6167;43.080;25.634;2022-10-19T02:06:50;100165.34;;;4.72;100.00
12209;BME280;6167;43.080;25.634;2022-10-19T02:09:17;100159.34;;;4.61;100.00
12209;BME280;6167;43.080;25.634;2022-10-19T02:11:46;100164.91;;;4.33;100.00
12209;BME280;6167;43.080;25.634;2022-10-19T02:14:16;100157.63;;;4.58;100.00
12209;BME280;6167;43.080;25.634;2022-10-19T02:16:50;100153.94;;;4.76;100.00
12209;BME280;6167;43.080;25.634;2022-10-19T02:19:19;100152.44;;;4.57;100.00
12209;BME280;6167;43.080;25.634;2022-10-19T02:21:46;100141.59;;;4.06;100.00
12209;BME280;6167;43.080;25.634;2022-10-19T02:24:14;100165.72;;;4.37;100.00
12209;BME280;6167;43.080;25.634;2022-10-19T02:26:41;100161.31;;;4.40;100.00
12209;BME280;6167;43.080;25.634;2022-10-19T02:29:09;100163.22;;;4.26;100.00
12209;BME280;6167;43.080;25.634;2022-10-19T02:31:37;100142.25;;;4.31;100.00
12209;BME280;6167;43.080;25.634;2022-10-19T02:34:06;100157.09;;;4.29;100.00
12209;BME280;6167;43.080;25.634;2022-10-19T02:36:33;100142.50;;;4.02;100.00
12209;BME280;6167;43.080;25.634;2022-10-19T02:39:01;100149.31;;;4.21;100.00
12209;BME280;6167;43.080;25.634;2022-10-19T02:41:32;100156.97;;;4.39;100.00
12209;BME280;6167;43.080;25.634;2022-10-19T02:44:07;100151.94;;;4.18;100.00
12209;BME280;6167;43.080;25.634;2022-10-19T02:46:39;100151.16;;;4.10;100.00
12209;BME280;6167;43.080;25.634;2022-10-19T02:49:11;100153.63;;;4.27;100.00
12209;BME280;6167;43.080;25.634;2022-10-19T02:51:55;100132.88;;;4.05;100.00
12209;BME280;6167;43.080;25.634;2022-10-19T02:54:23;100148.81;;;3.79;100.00
12209;BME280;6167;43.080;25.634;2022-10-19T02:56:50;100154.13;;;3.73;100.00
12209;BME280;6167;43.080;25.634;2022-10-19T02:59:17;100162.66;;;3.94;100.00
12209;BME280;6167;43.080;25.634;2022-10-19T03:01:44;100147.00;;;3.89;100.00
12209;BME280;6167;43.080;25.634;2022-10-19T03:04:14;100155.81;;;3.77;100.00
12209;BME280;6167;43.080;25.634;2022-10-19T03:06:40;100162.75;;;3.83;100.00
12209;BME280;6167;43.080;25.634;2022-10-19T03:09:11;100152.94;;;4.08;100.00
12209;BME280;6167;43.080;25.634;2022-10-19T03:11:38;100149.63;;;3.88;100.00
12209;BME280;6167;43.080;25.634;2022-10-19T03:14:05;100155.81;;;3.77;100.00
12209;BME280;6167;43.080;25.634;2022-10-19T03:16:32;100141.81;;;3.83;100.00
12209;BME280;6167;43.080;25.634;2022-10-19T03:18:59;100140.88;;;3.93;100.00
12209;BME280;6167;43.080;25.634;2022-10-19T03:21:28;100148.78;;;3.86;100.00
12209;BME280;6167;43.080;25.634;2022-10-19T03:23:56;100154.16;;;3.67;100.00
12209;BME280;6167;43.080;25.634;2022-10-19T03:26:22;100140.00;;;3.93;100.00
12209;BME280;6167;43.080;25.634;2022-10-19T03:28:49;100145.94;;;4.08;100.00
12209;BME280;6167;43.080;25.634;2022-10-19T03:31:16;100142.69;;;3.84;100.00
12209;BME280;6167;43.080;25.634;2022-10-19T03:33:45;100148.81;;;3.79;100.00
12209;BME280;6167;43.080;25.634;2022-10-19T03:36:14;100140.00;;;3.93;100.00
12209;BME280;6167;43.080;25.634;2022-10-19T03:38:43;100147.09;;;3.77;100.00
12209;BME280;6167;43.080;25.634;2022-10-19T03:41:10;100142.81;;;3.71;100.00
12209;BME280;6167;43.080;25.634;2022-10-19T03:43:37;100147.00;;;3.88;100.00
12209;BME280;6167;43.080;25.634;2022-10-19T03:46:06;100132.25;;;3.80;100.00
12209;BME280;6167;43.080;25.634;2022-10-19T03:48:34;100147.25;;;3.57;100.00
12209;BME280;6167;43.080;25.634;2022-10-19T03:51:03;100145.34;;;3.79;100.00
12209;BME280;6167;43.080;25.634;2022-10-19T03:53:30;100148.78;;;3.83;100.00
12209;BME280;6167;43.080;25.634;2022-10-19T03:56:03;100145.44;;;3.65;100.00
12209;BME280;6167;43.080;25.634;2022-10-19T03:58:32;100138.66;;;3.38;100.00
12209;BME280;6167;43.080;25.634;2022-10-19T04:01:00;100134.31;;;3.36;100.00
12209;BME280;6167;43.080;25.634;2022-10-19T04:03:27;100143.72;;;3.61;100.00
12209;BME280;6167;43.080;25.634;2022-10-19T04:06:00;100125.47;;;3.57;100.00
12209;BME280;6167;43.080;25.634;2022-10-19T04:08:28;100130.81;;;3.43;100.00
12209;BME280;6167;43.080;25.634;2022-10-19T04:10:58;100095.91;;;3.50;100.00
12209;BME280;6167;43.080;25.634;2022-10-19T04:13:27;100131.56;;;3.57;100.00
12209;BME280;6167;43.080;25.634;2022-10-19T04:15:54;100127.38;;;3.33;100.00
12209;BME280;6167;43.080;25.634;2022-10-19T04:18:22;100110.91;;;3.22;100.00
12209;BME280;6167;43.080;25.634;2022-10-19T04:20:55;100132.38;;;3.64;100.00
12209;BME280;6167;43.080;25.634;2022-10-19T04:23:25;100098.50;;;3.50;100.00
12209;BME280;6167;43.080;25.634;2022-10-19T04:25:58;100135.13;;;3.50;100.00
12209;BME280;6167;43.080;25.634;2022-10-19T04:28:29;100107.13;;;3.63;100.00
12209;BME280;6167;43.080;25.634;2022-10-19T04:30:56;100114.81;;;3.79;100.00
12209;BME280;6167;43.080;25.634;2022-10-19T04:33:23;100122.66;;;3.79;100.00
12209;BME280;6167;43.080;25.634;2022-10-19T04:35:56;100127.84;;;3.86;100.00
12209;BME280;6167;43.080;25.634;2022-10-19T04:38:23;100122.63;;;3.83;100.00
12209;BME280;6167;43.080;25.634;2022-10-19T04:40:51;100109.75;;;3.57;100.00
12209;BME280;6167;43.080;25.634;2022-10-19T04:43:21;100130.66;;;3.61;100.00
12209;BME280;6167;43.080;25.634;2022-10-19T04:45:50;100128.75;;;3.78;100.00
12209;BME280;6167;43.080;25.634;2022-10-19T04:48:17;100128.06;;;3.57;100.00
12209;BME280;6167;43.080;25.634;2022-10-19T04:50:43;100128.28;;;3.29;100.00
12209;BME280;6167;43.080;25.634;2022-10-19T04:53:10;100126.47;;;3.37;100.00
12209;BME280;6167;43.080;25.634;2022-10-19T04:55:39;100128.94;;;3.59;100.00
12209;BME280;6167;43.080;25.634;2022-10-19T04:58:06;100118.91;;;4.09;100.00
12209;BME280;6167;43.080;25.634;2022-10-19T05:00:34;100119.44;;;4.39;100.00
12209;BME280;6167;43.080;25.634;2022-10-19T05:03:06;100105.69;;;4.94;100.00
12209;BME280;6167;43.080;25.634;2022-10-19T05:05:33;100114.00;;;5.22;100.00
12209;BME280;6167;43.080;25.634;2022-10-19T05:08:01;100089.16;;;5.45;100.00
12209;BME280;6167;43.080;25.634;2022-10-19T05:10:29;100098.50;;;6.60;100.00
12209;BME280;6167;43.080;25.634;2022-10-19T05:12:57;100087.16;;;7.72;100.00
12209;BME280;6167;43.080;25.634;2022-10-19T05:15:25;100089.63;;;8.46;100.00
12209;BME280;6167;43.080;25.634;2022-10-19T05:17:53;100096.16;;;9.21;100.00
12209;BME280;6167;43.080;25.634;2022-10-19T05:20:22;100084.06;;;10.21;100.00
12209;BME280;6167;43.080;25.634;2022-10-19T05:22:51;100088.81;;;11.07;100.00
12209;BME280;6167;43.080;25.634;2022-10-19T05:25:19;100065.03;;;11.50;100.00
12209;BME280;6167;43.080;25.634;2022-10-19T05:27:49;100069.91;;;12.03;100.00
12209;BME280;6167;43.080;25.634;2022-10-19T05:30:17;100073.50;;;12.61;98.32
12209;BME280;6167;43.080;25.634;2022-10-19T05:32:46;100069.66;;;13.06;84.94
12209;BME280;6167;43.080;25.634;2022-10-19T05:35:16;100047.56;;;13.24;79.27
12209;BME280;6167;43.080;25.634;2022-10-19T05:37:44;100088.63;;;13.89;82.61
12209;BME280;6167;43.080;25.634;2022-10-19T05:40:11;100063.53;;;13.77;74.64
12209;BME280;6167;43.080;25.634;2022-10-19T05:42:39;100074.09;;;14.48;77.01
12209;BME280;6167;43.080;25.634;2022-10-19T05:45:06;100073.59;;;15.53;100.00
12209;BME280;6167;43.080;25.634;2022-10-19T05:47:33;100047.78;;;16.58;90.08
12209;BME280;6167;43.080;25.634;2022-10-19T05:50:02;100051.88;;;17.74;70.20
12209;BME280;6167;43.080;25.634;2022-10-19T05:52:29;100030.25;;;18.29;57.35
12209;BME280;6167;43.080;25.634;2022-10-19T05:54:58;100051.69;;;18.80;52.06
12209;BME280;6167;43.080;25.634;2022-10-19T05:57:26;100040.59;;;19.34;50.00
12209;BME280;6167;43.080;25.634;2022-10-19T05:59:53;100038.91;;;19.69;47.49
12209;BME280;6167;43.080;25.634;2022-10-19T06:02:22;100034.66;;;19.78;47.41
12209;BME280;6167;43.080;25.634;2022-10-19T06:04:50;100016.00;;;20.11;43.93
12209;BME280;6167;43.080;25.634;2022-10-19T06:07:17;100023.41;;;20.08;42.97
12209;BME280;6167;43.080;25.634;2022-10-19T06:09:44;100025.34;;;19.95;43.29
12209;BME280;6167;43.080;25.634;2022-10-19T06:12:13;100044.78;;;20.09;42.89
12209;BME280;6167;43.080;25.634;2022-10-19T06:14:40;100032.56;;;20.16;42.80
12209;BME280;6167;43.080;25.634;2022-10-19T06:17:08;100035.63;;;20.12;42.64
12209;BME280;6167;43.080;25.634;2022-10-19T06:19:36;100025.94;;;19.98;42.48
12209;BME280;6167;43.080;25.634;2022-10-19T06:22:04;100011.94;;;20.06;42.23
12209;BME280;6167;43.080;25.634;2022-10-19T06:24:31;100018.22;;;19.82;42.64
12209;BME280;6167;43.080;25.634;2022-10-19T06:26:58;100026.31;;;19.94;42.65
12209;BME280;6167;43.080;25.634;2022-10-19T06:29:27;100026.84;;;20.10;42.73
12209;BME280;6167;43.080;25.634;2022-10-19T06:31:57;100031.13;;;20.23;42.44
12209;BME280;6167;43.080;25.634;2022-10-19T06:34:24;100027.88;;;20.31;42.44
12209;BME280;6167;43.080;25.634;2022-10-19T06:36:52;100018.63;;;20.46;42.62
12209;BME280;6167;43.080;25.634;2022-10-19T06:39:19;100013.88;;;20.72;41.59
12209;BME280;6167;43.080;25.634;2022-10-19T06:41:46;100013.47;;;20.99;41.59
12209;BME280;6167;43.080;25.634;2022-10-19T06:44:13;100002.38;;;20.92;41.71
12209;BME280;6167;43.080;25.634;2022-10-19T06:46:43;99992.94;;;21.20;41.09
12209;BME280;6167;43.080;25.634;2022-10-19T06:49:12;99999.81;;;21.56;44.39
12209;BME280;6167;43.080;25.634;2022-10-19T06:51:40;99999.63;;;22.22;44.12
12209;BME280;6167;43.080;25.634;2022-10-19T06:54:11;99987.09;;;22.62;40.02
12209;BME280;6167;43.080;25.634;2022-10-19T06:56:42;100005.66;;;22.96;40.14
12209;BME280;6167;43.080;25.634;2022-10-19T06:59:09;99989.84;;;23.22;39.00
12209;BME280;6167;43.080;25.634;2022-10-19T07:01:38;99975.94;;;23.36;39.13
12209;BME280;6167;43.080;25.634;2022-10-19T07:04:06;99977.22;;;23.51;38.31
12209;BME280;6167;43.080;25.634;2022-10-19T07:06:34;99963.91;;;23.88;37.08
12209;BME280;6167;43.080;25.634;2022-10-19T07:09:01;99995.28;;;24.09;36.92
12209;BME280;6167;43.080;25.634;2022-10-19T07:11:28;99999.81;;;24.18;36.91
12209;BME280;6167;43.080;25.634;2022-10-19T07:13:55;99984.66;;;23.88;36.16
12209;BME280;6167;43.080;25.634;2022-10-19T07:16:23;99988.78;;;23.82;36.19
12209;BME280;6167;43.080;25.634;2022-10-19T07:18:51;99972.81;;;23.41;36.04
12209;BME280;6167;43.080;25.634;2022-10-19T07:21:22;99983.41;;;23.04;37.87
12209;BME280;6167;43.080;25.634;2022-10-19T07:23:49;99981.34;;;23.46;37.50
12209;BME280;6167;43.080;25.634;2022-10-19T07:26:18;99963.84;;;23.21;37.92
12209;BME280;6167;43.080;25.634;2022-10-19T07:28:50;99972.28;;;23.76;37.82
12209;BME280;6167;43.080;25.634;2022-10-19T07:31:19;99973.69;;;23.99;36.63
12209;BME280;6167;43.080;25.634;2022-10-19T07:33:47;99974.81;;;24.25;37.26
12209;BME280;6167;43.080;25.634;2022-10-19T07:36:17;99962.22;;;24.44;36.50
12209;BME280;6167;43.080;25.634;2022-10-19T07:38:45;99971.38;;;24.97;35.69
12209;BME280;6167;43.080;25.634;2022-10-19T07:41:14;99944.31;;;25.43;34.84
12209;BME280;6167;43.080;25.634;2022-10-19T07:43:44;99936.47;;;25.57;33.76
12209;BME280;6167;43.080;25.634;2022-10-19T07:46:13;99953.38;;;25.69;33.74
12209;BME280;6167;43.080;25.634;2022-10-19T07:48:54;99938.13;;;25.50;33.66
12209;BME280;6167;43.080;25.634;2022-10-19T07:51:22;99924.19;;;25.81;34.31
12209;BME280;6167;43.080;25.634;2022-10-19T07:53:51;99959.38;;;26.24;33.98
12209;BME280;6167;43.080;25.634;2022-10-19T07:56:19;99931.28;;;26.51;33.20
12209;BME280;6167;43.080;25.634;2022-10-19T07:58:49;99908.84;;;26.83;32.25
12209;BME280;6167;43.080;25.634;2022-10-19T08:01:18;99937.34;;;26.87;32.39
12209;BME280;6167;43.080;25.634;2022-10-19T08:03:46;99929.56;;;26.92;32.59
12209;BME280;6167;43.080;25.634;2022-10-19T08:06:16;99907.81;;;26.34;32.14
12209;BME280;6167;43.080;25.634;2022-10-19T08:08:45;99924.78;;;26.44;32.43
12209;BME280;6167;43.080;25.634;2022-10-19T08:11:15;99915.66;;;26.45;32.97
12209;BME280;6167;43.080;25.634;2022-10-19T08:13:42;99917.66;;;26.43;32.83
12209;BME280;6167;43.080;25.634;2022-10-19T08:16:21;99914.63;;;26.20;35.74
12209;BME280;6167;43.080;25.634;2022-10-19T08:18:49;99897.34;;;26.39;33.63
12209;BME280;6167;43.080;25.634;2022-10-19T08:21:16;99896.72;;;26.27;32.76
12209;BME280;6167;43.080;25.634;2022-10-19T08:23:43;99913.25;;;25.11;34.34
12209;BME280;6167;43.080;25.634;2022-10-19T08:26:10;99900.44;;;24.31;34.77
12209;BME280;6167;43.080;25.634;2022-10-19T08:28:39;99905.59;;;24.05;35.98
12209;BME280;6167;43.080;25.634;2022-10-19T08:31:10;99891.06;;;24.53;39.37
12209;BME280;6167;43.080;25.634;2022-10-19T08:33:37;99895.34;;;25.00;35.72
12209;BME280;6167;43.080;25.634;2022-10-19T08:36:11;99890.88;;;25.45;35.57
12209;BME280;6167;43.080;25.634;2022-10-19T08:38:39;99879.44;;;25.51;34.03
12209;BME280;6167;43.080;25.634;2022-10-19T08:41:20;99887.16;;;25.63;33.29
12209;BME280;6167;43.080;25.634;2022-10-19T08:43:58;99881.75;;;25.63;33.45
12209;BME280;6167;43.080;25.634;2022-10-19T08:46:36;99871.31;;;25.15;35.08
12209;BME280;6167;43.080;25.634;2022-10-19T08:49:07;99874.69;;;24.82;34.74
12209;BME280;6167;43.080;25.634;2022-10-19T08:51:39;99886.06;;;24.11;35.25
12209;BME280;6167;43.080;25.634;2022-10-19T08:54:12;99868.09;;;24.66;36.29
12209;BME280;6167;43.080;25.634;2022-10-19T08:56:47;99872.66;;;24.66;34.81
12209;BME280;6167;43.080;25.634;2022-10-19T08:59:25;99872.88;;;25.18;34.27
12209;BME280;6167;43.080;25.634;2022-10-19T09:01:58;99866.13;;;25.75;34.48
12209;BME280;6167;43.080;25.634;2022-10-19T09:04:32;99865.78;;;26.04;33.13
12209;BME280;6167;43.080;25.634;2022-10-19T09:07:24;99858.34;;;26.40;33.03
12209;BME280;6167;43.080;25.634;2022-10-19T09:09:55;99863.53;;;26.25;33.87
12209;BME280;6167;43.080;25.634;2022-10-19T09:12:38;99864.50;;;25.47;33.02
12209;BME280;6167;43.080;25.634;2022-10-19T09:15:27;99854.75;;;25.54;33.67
12209;BME280;6167;43.080;25.634;2022-10-19T09:17:59;99847.66;;;26.05;34.98
12209;BME280;6167;43.080;25.634;2022-10-19T09:20:31;99845.81;;;26.31;33.94
12209;BME280;6167;43.080;25.634;2022-10-19T09:23:06;99841.19;;;26.65;32.69
12209;BME280;6167;43.080;25.634;2022-10-19T09:25:40;99837.09;;;26.61;32.21
12209;BME280;6167;43.080;25.634;2022-10-19T09:28:16;99845.41;;;25.66;32.81
12209;BME280;6167;43.080;25.634;2022-10-19T09:30:47;99851.94;;;25.02;33.47
12209;BME280;6167;43.080;25.634;2022-10-19T09:33:24;99840.06;;;24.85;33.62
12209;BME280;6167;43.080;25.634;2022-10-19T09:35:54;99837.81;;;24.36;34.09
12209;BME280;6167;43.080;25.634;2022-10-19T09:38:26;99840.47;;;23.42;35.30
12209;BME280;6167;43.080;25.634;2022-10-19T09:41:06;99833.69;;;23.94;34.85
12209;BME280;6167;43.080;25.634;2022-10-19T09:43:44;99836.94;;;24.08;35.44
12209;BME280;6167;43.080;25.634;2022-10-19T09:46:26;99835.25;;;25.07;34.26
12209;BME280;6167;43.080;25.634;2022-10-19T09:48:58;99830.28;;;24.57;33.88
12209;BME280;6167;43.080;25.634;2022-10-19T09:51:38;99815.72;;;25.39;33.33
12209;BME280;6167;43.080;25.634;2022-10-19T09:54:07;99805.72;;;25.83;32.92
12209;BME280;6167;43.080;25.634;2022-10-19T09:56:52;99825.19;;;25.60;32.43
12209;BME280;6167;43.080;25.634;2022-10-19T09:59:23;99828.34;;;25.99;32.51
12209;BME280;6167;43.080;25.634;2022-10-19T10:02:15;99813.19;;;24.66;33.46
12209;BME280;6167;43.080;25.634;2022-10-19T10:04:45;99819.94;;;25.77;32.47
12209;BME280;6167;43.080;25.634;2022-10-19T10:07:15;99828.63;;;25.45;32.07
12209;BME280;6167;43.080;25.634;2022-10-19T10:09:48;99804.94;;;24.40;33.08
12209;BME280;6167;43.080;25.634;2022-10-19T10:12:17;99813.22;;;24.56;33.81
12209;BME280;6167;43.080;25.634;2022-10-19T10:14:44;99792.09;;;23.87;34.39
12209;BME280;6167;43.080;25.634;2022-10-19T10:17:15;99800.81;;;24.63;34.23
12209;BME280;6167;43.080;25.634;2022-10-19T10:20:02;99789.91;;;24.01;33.98
12209;BME280;6167;43.080;25.634;2022-10-19T10:22:32;99804.63;;;23.88;33.93
12209;BME280;6167;43.080;25.634;2022-10-19T10:24:59;99808.81;;;24.01;34.20
12209;BME280;6167;43.080;25.634;2022-10-19T10:27:32;99784.22;;;24.94;32.29
12209;BME280;6167;43.080;25.634;2022-10-19T10:30:05;99792.59;;;25.00;31.47
12209;BME280;6167;43.080;25.634;2022-10-19T10:32:36;99790.03;;;24.99;32.26
12209;BME280;6167;43.080;25.634;2022-10-19T10:35:06;99788.09;;;25.79;30.91
12209;BME280;6167;43.080;25.634;2022-10-19T10:37:43;99777.44;;;26.11;30.89
12209;BME280;6167;43.080;25.634;2022-10-19T10:40:20;99768.81;;;26.66;30.82
12209;BME280;6167;43.080;25.634;2022-10-19T10:42:48;99778.19;;;26.80;29.51
12209;BME280;6167;43.080;25.634;2022-10-19T10:45:19;99781.53;;;26.57;29.99
12209;BME280;6167;43.080;25.634;2022-10-19T10:47:51;99783.59;;;24.82;31.10
12209;BME280;6167;43.080;25.634;2022-10-19T10:50:21;99763.91;;;26.11;30.38
12209;BME280;6167;43.080;25.634;2022-10-19T10:52:57;99753.81;;;26.29;30.14
12209;BME280;6167;43.080;25.634;2022-10-19T10:55:25;99764.09;;;25.58;31.02
12209;BME280;6167;43.080;25.634;2022-10-19T10:58:02;99766.66;;;25.33;30.12
12209;BME280;6167;43.080;25.634;2022-10-19T11:00:35;99754.19;;;25.66;30.12
12209;BME280;6167;43.080;25.634;2022-10-19T11:03:13;99749.81;;;26.08;30.66
12209;BME280;6167;43.080;25.634;2022-10-19T11:05:44;99750.38;;;25.77;30.37
12209;BME280;6167;43.080;25.634;2022-10-19T11:08:19;99744.47;;;25.56;29.55
12209;BME280;6167;43.080;25.634;2022-10-19T11:10:53;99738.56;;;25.86;30.71
12209;BME280;6167;43.080;25.634;2022-10-19T11:13:27;99735.63;;;26.22;29.78
12209;BME280;6167;43.080;25.634;2022-10-19T11:15:59;99734.31;;;25.84;29.73
12209;BME280;6167;43.080;25.634;2022-10-19T11:18:29;99739.69;;;25.24;30.96
12209;BME280;6167;43.080;25.634;2022-10-19T11:21:04;99735.44;;;25.47;30.33
12209;BME280;6167;43.080;25.634;2022-10-19T11:23:39;99717.41;;;25.56;29.89
12209;BME280;6167;43.080;25.634;2022-10-19T11:26:22;99731.50;;;25.42;29.96
12209;BME280;6167;43.080;25.634;2022-10-19T11:29:00;99726.97;;;24.81;30.15
12209;BME280;6167;43.080;25.634;2022-10-19T11:31:40;99707.78;;;25.61;29.08
12209;BME280;6167;43.080;25.634;2022-10-19T11:34:34;99702.66;;;24.27;30.74
12209;BME280;6167;43.080;25.634;2022-10-19T11:37:11;99714.00;;;24.66;29.39
12209;BME280;6167;43.080;25.634;2022-10-19T11:39:48;99718.56;;;25.02;30.20
12209;BME280;6167;43.080;25.634;2022-10-19T11:42:22;99705.63;;;25.13;29.01
12209;BME280;6167;43.080;25.634;2022-10-19T11:45:03;99682.81;;;25.16;29.41
12209;BME280;6167;43.080;25.634;2022-10-19T11:47:44;99676.53;;;25.41;28.95
12209;BME280;6167;43.080;25.634;2022-10-19T11:50:42;99684.88;;;25.74;28.60
12209;BME280;6167;43.080;25.634;2022-10-19T11:53:17;99679.78;;;25.19;28.48
12209;BME280;6167;43.080;25.634;2022-10-19T11:55:54;99681.41;;;25.38;28.59
12209;BME280;6167;43.080;25.634;2022-10-19T11:58:32;99683.06;;;25.56;28.66
12209;BME280;6167;43.080;25.634;2022-10-19T12:01:11;99681.72;;;25.60;28.50
12209;BME280;6167;43.080;25.634;2022-10-19T12:04:09;99676.22;;;25.78;28.14
12209;BME280;6167;43.080;25.634;2022-10-19T12:06:49;99668.25;;;25.34;28.34
12209;BME280;6167;43.080;25.634;2022-10-19T12:09:24;99684.31;;;25.10;29.11
12209;BME280;6167;43.080;25.634;2022-10-19T12:12:13;99669.28;;;25.42;29.00
12209;BME280;6167;43.080;25.634;2022-10-19T12:14:45;99674.41;;;25.87;29.12
12209;BME280;6167;43.080;25.634;2022-10-19T12:17:19;99675.44;;;25.60;28.03
12209;BME280;6167;43.080;25.634;2022-10-19T12:19:52;99669.84;;;25.53;28.18
12209;BME280;6167;43.080;25.634;2022-10-19T12:22:25;99676.56;;;24.72;28.63
12209;BME280;6167;43.080;25.634;2022-10-19T12:24:53;99676.84;;;23.60;30.80
12209;BME280;6167;43.080;25.634;2022-10-19T12:27:28;99670.13;;;23.92;31.12
12209;BME280;6167;43.080;25.634;2022-10-19T12:30:00;99661.69;;;24.05;29.78
12209;BME280;6167;43.080;25.634;2022-10-19T12:32:38;99662.63;;;24.13;30.08
12209;BME280;6167;43.080;25.634;2022-10-19T12:35:19;99649.56;;;24.97;28.91
12209;BME280;6167;43.080;25.634;2022-10-19T12:37:55;99658.00;;;24.59;30.01
12209;BME280;6167;43.080;25.634;2022-10-19T12:40:31;99651.66;;;24.86;29.61
12209;BME280;6167;43.080;25.634;2022-10-19T12:43:02;99643.34;;;24.61;30.03
12209;BME280;6167;43.080;25.634;2022-10-19T12:45:35;99649.88;;;24.51;30.08
12209;BME280;6167;43.080;25.634;2022-10-19T12:48:17;99644.13;;;24.72;30.32
12209;BME280;6167;43.080;25.634;2022-10-19T12:51:03;99650.94;;;25.02;31.00
12209;BME280;6167;43.080;25.634;2022-10-19T12:53:35;99635.66;;;24.92;31.18
12209;BME280;6167;43.080;25.634;2022-10-19T12:56:05;99618.72;;;25.08;29.71
12209;BME280;6167;43.080;25.634;2022-10-19T12:58:38;99642.81;;;24.40;31.55
12209;BME280;6167;43.080;25.634;2022-10-19T13:01:07;99636.47;;;24.67;30.38
12209;BME280;6167;43.080;25.634;2022-10-19T13:03:37;99639.59;;;23.91;31.27
12209;BME280;6167;43.080;25.634;2022-10-19T13:06:10;99617.31;;;23.35;31.95
12209;BME280;6167;43.080;25.634;2022-10-19T13:08:45;99626.38;;;23.71;32.43
12209;BME280;6167;43.080;25.634;2022-10-19T13:11:14;99623.63;;;24.25;31.64
12209;BME280;6167;43.080;25.634;2022-10-19T13:13:56;99623.50;;;24.53;31.98
12209;BME280;6167;43.080;25.634;2022-10-19T13:19:28;99603.88;;;23.52;31.94